Time;durP1;ratioP1;P1;durP2;ratioP2;P2;SDS_P1;SDS_P2;PMS_P1;PMS_P2;Temp;Humidity;BMP_temperature;BMP_pressure;BME280_temperature;BME280_humidity;BME280_pressure;Samples;Min_cycle;Max_cycle;Signal;HPM_P1;HPM_P2
2021/12/31 10:59:26;;;;;;;0.60;0.50;;;;;;;29.71;38.95;99504.22;5117504;27;21114;-91
2021/12/31 11:01:54;;;;;;;1.00;1.00;;;;;;;29.49;38.30;99485.25;5110530;27;40104;-89
2021/12/31 11:04:22;;;;;;;1.17;0.80;;;;;;;29.15;37.14;99504.31;5106818;27;40574;-87
2021/12/31 11:06:50;;;;;;;0.90;0.90;;;;;;;28.57;38.48;99517.22;5122963;27;41826;-91
2021/12/31 11:09:24;;;;;;;0.77;0.77;;;;;;;28.37;38.00;99489.78;5107373;27;41320;-90
2021/12/31 11:11:53;;;;;;;0.80;0.80;;;;;;;27.82;38.13;99507.56;5107240;27;39421;-89
2021/12/31 11:14:23;;;;;;;1.03;0.90;;;;;;;26.51;40.98;99522.69;5107342;27;40556;-90
2021/12/31 11:16:50;;;;;;;1.13;0.90;;;;;;;25.06;42.02;99506.03;5124474;27;42816;-87
2021/12/31 11:19:18;;;;;;;1.00;0.80;;;;;;;24.52;44.74;99503.00;5105973;27;40710;-88
2021/12/31 11:21:49;;;;;;;0.73;0.73;;;;;;;24.76;43.08;99512.13;5106921;27;38984;-92
2021/12/31 11:24:32;;;;;;;0.70;0.60;;;;;;;24.77;42.11;99497.56;5109223;27;40721;-91
2021/12/31 11:26:59;;;;;;;1.63;0.80;;;;;;;25.06;41.28;99516.88;5109287;27;41933;-92
2021/12/31 11:29:38;;;;;;;0.93;0.83;;;;;;;24.59;41.25;99539.22;5107957;27;41506;-88
2021/12/31 11:32:07;;;;;;;1.03;1.03;;;;;;;24.00;43.34;99516.75;5105586;28;38948;-87
2021/12/31 11:34:35;;;;;;;0.73;0.73;;;;;;;25.69;41.14;99526.88;5120250;27;41677;-92
2021/12/31 11:37:03;;;;;;;0.60;0.60;;;;;;;26.95;39.76;99535.59;5104802;27;43461;-92
2021/12/31 11:39:34;;;;;;;0.70;0.70;;;;;;;26.70;40.12;99530.34;5104000;27;41629;-90
2021/12/31 11:42:04;;;;;;;0.80;0.80;;;;;;;25.62;41.47;99521.28;5124324;27;39136;-91
2021/12/31 11:44:34;;;;;;;0.63;0.63;;;;;;;24.69;42.11;99529.06;5106207;27;40719;-88
2021/12/31 11:47:13;;;;;;;1.03;0.80;;;;;;;23.81;43.19;99508.09;5123637;27;41739;-92
2021/12/31 11:49:41;;;;;;;0.70;0.70;;;;;;;23.76;43.92;99507.72;5087003;27;41270;-88
2021/12/31 11:52:12;;;;;;;0.80;0.80;;;;;;;23.39;43.39;99521.56;5099499;28;40190;-87
2021/12/31 11:54:40;;;;;;;1.20;0.90;;;;;;;22.69;44.96;99497.28;5083033;27;41419;-88
2021/12/31 11:57:18;;;;;;;0.73;0.70;;;;;;;21.94;46.41;99419.53;5107021;27;42077;-90
2021/12/31 11:59:55;;;;;;;1.17;1.10;;;;;;;22.10;46.85;99485.31;5099408;27;43757;-88
2021/12/31 12:02:38;;;;;;;0.73;0.73;;;;;;;22.67;46.27;99464.19;5106489;27;38704;-86
2021/12/31 12:05:15;;;;;;;0.90;0.80;;;;;;;25.02;42.22;99501.97;5099639;28;40574;-90
2021/12/31 12:07:48;;;;;;;1.03;0.60;;;;;;;26.01;39.95;99521.28;5095129;27;41805;-88
2021/12/31 12:10:38;;;;;;;0.90;0.90;;;;;;;25.55;39.67;99519.44;5096443;28;42062;-90
2021/12/31 12:13:25;;;;;;;0.70;0.70;;;;;;;24.39;42.72;99482.84;5109916;28;40387;-88
2021/12/31 12:15:53;;;;;;;0.70;0.67;;;;;;;23.82;43.63;99475.47;5090979;28;40598;-88
2021/12/31 12:18:54;;;;;;;1.00;0.73;;;;;;;24.31;42.63;99456.63;5092985;28;41816;-89
2021/12/31 12:21:36;;;;;;;0.63;0.63;;;;;;;24.99;42.43;99464.34;5088829;28;41180;-89
2021/12/31 12:24:04;;;;;;;1.10;1.00;;;;;;;26.39;39.46;99473.38;5092564;28;41739;-91
2021/12/31 12:26:33;;;;;;;0.77;0.77;;;;;;;28.41;35.97;99506.59;5107729;28;42033;-86
2021/12/31 12:29:01;;;;;;;0.70;0.70;;;;;;;28.23;35.44;99510.59;5091741;28;41882;-89
2021/12/31 12:31:34;;;;;;;0.80;0.70;;;;;;;26.77;37.27;99462.50;5093226;28;40995;-91
2021/12/31 12:34:03;;;;;;;0.90;0.67;;;;;;;25.79;39.31;99456.97;5092809;28;38747;-90
2021/12/31 12:36:32;;;;;;;0.90;0.90;;;;;;;24.99;41.08;99448.94;5090448;28;40520;-91
2021/12/31 12:39:06;;;;;;;0.60;0.60;;;;;;;23.99;42.26;99450.13;5092459;28;41640;-89
2021/12/31 12:41:34;;;;;;;1.03;0.60;;;;;;;23.02;44.13;99422.72;5105780;28;42290;-88
2021/12/31 12:44:10;;;;;;;0.60;0.60;;;;;;;22.32;46.31;99411.13;5092032;28;38578;-90
2021/12/31 12:46:51;;;;;;;0.90;0.80;;;;;;;21.72;47.63;99393.88;5109579;28;42205;-87
2021/12/31 12:49:20;;;;;;;0.77;0.77;;;;;;;21.19;48.44;99377.63;5109519;28;42790;-87
2021/12/31 12:51:49;;;;;;;0.60;0.60;;;;;;;21.21;48.23;99362.16;5079396;28;41511;-89
2021/12/31 12:54:21;;;;;;;1.00;0.90;;;;;;;20.94;49.25;99357.59;5076746;28;38712;-88
2021/12/31 12:56:50;;;;;;;0.97;0.70;;;;;;;20.69;50.22;99370.75;5076529;28;40656;-88
2021/12/31 12:59:20;;;;;;;0.50;0.47;;;;;;;20.33;50.65;99353.53;5076175;28;41617;-89
2021/12/31 13:01:48;;;;;;;1.57;0.93;;;;;;;19.98;51.13;99350.63;5076151;28;42251;-88
2021/12/31 13:04:18;;;;;;;2.67;0.80;;;;;;;19.85;52.16;99360.84;5075992;28;40519;-91
2021/12/31 13:06:58;;;;;;;0.93;0.80;;;;;;;19.54;53.36;99328.72;5092731;28;42296;-90
2021/12/31 13:09:29;;;;;;;0.70;0.70;;;;;;;19.41;53.26;99336.16;5085943;28;41916;-91
2021/12/31 13:11:59;;;;;;;0.70;0.70;;;;;;;19.40;53.36;99334.50;5096686;28;42541;-86
2021/12/31 13:14:31;;;;;;;0.80;0.80;;;;;;;19.26;53.74;99329.53;5096117;28;38981;-89
2021/12/31 13:16:59;;;;;;;1.33;0.70;;;;;;;18.57;54.48;99259.69;5095533;28;41855;-88
2021/12/31 13:19:33;;;;;;;2.80;1.43;;;;;;;18.71;55.25;99336.28;5096154;28;42077;-87
2021/12/31 13:22:06;;;;;;;1.00;0.90;;;;;;;18.58;55.96;99349.94;5094801;28;41243;-89
2021/12/31 13:24:33;;;;;;;1.50;0.90;;;;;;;18.33;56.03;99323.53;5096247;28;38770;-87
2021/12/31 13:27:05;;;;;;;1.60;0.80;;;;;;;18.30;56.80;99333.53;5095625;28;40915;-88
2021/12/31 13:29:34;;;;;;;0.60;0.60;;;;;;;18.02;57.01;99320.84;5095276;28;44353;-89
2021/12/31 13:32:06;;;;;;;0.87;0.83;;;;;;;17.83;57.70;99308.13;5095346;28;40892;-89
2021/12/31 13:34:40;;;;;;;0.70;0.70;;;;;;;17.74;58.27;99324.16;5093192;28;38750;-91
2021/12/31 13:37:09;;;;;;;1.10;0.90;;;;;;;17.38;58.85;99291.41;5089395;28;41239;-87
2021/12/31 13:39:39;;;;;;;1.00;0.70;;;;;;;17.38;58.91;99312.84;5083502;28;44209;-90
2021/12/31 13:42:12;;;;;;;2.10;0.90;;;;;;;17.28;59.65;99325.28;5080745;28;41186;-88
2021/12/31 13:44:41;;;;;;;1.00;0.70;;;;;;;17.23;60.01;99330.16;5077672;28;38492;-88
2021/12/31 13:47:13;;;;;;;0.83;0.73;;;;;;;17.14;60.34;99320.22;5088112;28;40377;-90
2021/12/31 13:49:43;;;;;;;2.53;1.07;;;;;;;16.79;60.51;99273.13;5084953;28;43229;-87
2021/12/31 13:52:27;;;;;;;0.70;0.70;;;;;;;17.09;60.46;99325.09;5079785;28;41568;-87
2021/12/31 13:54:56;;;;;;;0.80;0.77;;;;;;;17.01;60.85;99336.44;5060924;28;38937;-88
2021/12/31 13:57:26;;;;;;;0.70;0.70;;;;;;;16.86;60.94;99333.16;5089005;28;40758;-88
2021/12/31 13:59:55;;;;;;;2.17;0.70;;;;;;;16.76;61.26;99332.22;5085607;28;41478;-88
2021/12/31 14:02:26;;;;;;;0.73;0.73;;;;;;;16.61;61.80;99335.22;5091585;28;41438;-88
2021/12/31 14:05:04;;;;;;;0.77;0.70;;;;;;;16.63;62.09;99352.88;5075583;28;39008;-87
2021/12/31 14:07:40;;;;;;;1.57;0.90;;;;;;;16.55;62.45;99330.38;5074959;28;40797;-88
2021/12/31 14:10:15;;;;;;;0.73;0.73;;;;;;;16.35;62.70;99318.56;5075319;28;42542;-88
2021/12/31 14:12:48;;;;;;;2.30;0.70;;;;;;;16.33;62.88;99328.50;5110245;28;43025;-88
2021/12/31 14:15:17;;;;;;;0.90;0.83;;;;;;;16.23;63.15;99327.53;5111347;28;40129;-89
2021/12/31 14:17:47;;;;;;;0.70;0.70;;;;;;;16.15;63.99;99321.00;5095355;28;42119;-88
2021/12/31 14:20:15;;;;;;;1.83;1.23;;;;;;;15.89;64.11;99276.75;5079181;28;43643;-88
2021/12/31 14:22:45;;;;;;;0.90;0.90;;;;;;;15.86;64.38;99284.13;5076511;28;41419;-88
2021/12/31 14:25:12;;;;;;;1.83;0.87;;;;;;;15.70;64.88;99249.78;5085712;28;40218;-86
2021/12/31 14:27:40;;;;;;;0.97;0.70;;;;;;;15.80;65.57;99285.47;5085057;28;41793;-88
2021/12/31 14:30:11;;;;;;;2.93;0.83;;;;;;;15.69;65.20;99274.78;5079154;28;41592;-89
2021/12/31 14:32:40;;;;;;;1.10;0.90;;;;;;;15.68;65.70;99281.94;5091755;28;42056;-88
2021/12/31 14:35:12;;;;;;;1.50;0.80;;;;;;;15.69;65.61;99296.13;5092028;28;39094;-87
2021/12/31 14:37:40;;;;;;;1.03;0.83;;;;;;;15.62;65.87;99278.84;5089640;28;40984;-89
2021/12/31 14:40:13;;;;;;;1.67;0.80;;;;;;;15.62;66.12;99263.69;5095516;28;42329;-88
2021/12/31 14:42:42;;;;;;;1.37;0.87;;;;;;;15.50;66.22;99269.09;5091212;28;42441;-90
2021/12/31 14:45:11;;;;;;;0.87;0.87;;;;;;;15.50;66.68;99323.31;5093331;28;39892;-85
2021/12/31 14:47:41;;;;;;;0.70;0.70;;;;;;;15.32;67.10;99330.06;5108716;28;41850;-86
2021/12/31 14:50:11;;;;;;;1.50;1.07;;;;;;;15.36;67.19;99337.69;5107109;28;42860;-88
2021/12/31 14:52:40;;;;;;;1.17;1.07;;;;;;;15.33;67.55;99337.09;5075502;28;41315;-91
2021/12/31 14:55:11;;;;;;;1.57;1.00;;;;;;;15.09;68.15;99286.38;5074996;28;38578;-89
2021/12/31 14:57:41;;;;;;;1.73;0.90;;;;;;;15.20;68.22;99294.47;5074939;28;41013;-87
2021/12/31 15:00:10;;;;;;;1.50;1.20;;;;;;;14.96;68.28;99254.44;5075147;28;43318;-88
2021/12/31 15:02:38;;;;;;;0.93;0.83;;;;;;;14.85;69.00;99248.19;5076242;28;43572;-89
2021/12/31 15:05:07;;;;;;;1.57;1.10;;;;;;;14.70;69.64;99229.72;5088916;28;38914;-88
2021/12/31 15:07:35;;;;;;;0.80;0.80;;;;;;;14.53;70.17;99240.75;5063282;28;41948;-87
2021/12/31 15:10:04;;;;;;;0.80;0.80;;;;;;;14.37;70.98;99266.75;5076965;28;43187;-88
2021/12/31 15:12:33;;;;;;;1.03;0.97;;;;;;;14.25;71.82;99272.94;5074969;28;41352;-89
2021/12/31 15:15:01;;;;;;;1.10;1.00;;;;;;;14.17;71.78;99288.63;5075346;28;38751;-87
2021/12/31 15:17:29;;;;;;;0.87;0.80;;;;;;;14.16;72.36;99290.44;5080907;28;40983;-87
2021/12/31 15:19:57;;;;;;;0.70;0.70;;;;;;;13.97;72.60;99258.09;5080500;28;41616;-87
2021/12/31 15:22:26;;;;;;;1.23;0.90;;;;;;;13.84;73.20;99274.06;5082561;28;41428;-86
2021/12/31 15:24:53;;;;;;;1.37;0.90;;;;;;;13.83;73.81;99277.69;5096705;28;39068;-87
2021/12/31 15:27:22;;;;;;;1.03;0.87;;;;;;;13.79;74.49;99283.31;5079990;28;40911;-86
2021/12/31 15:29:52;;;;;;;0.90;0.90;;;;;;;13.66;74.27;99291.28;5085390;28;42009;-88
2021/12/31 15:32:21;;;;;;;1.83;1.00;;;;;;;13.69;74.80;99293.75;5090309;28;41893;-86
2021/12/31 15:34:48;;;;;;;0.90;0.90;;;;;;;13.41;74.74;99260.16;5091445;28;38949;-88
2021/12/31 15:37:16;;;;;;;1.53;1.00;;;;;;;13.41;75.37;99276.13;5096269;28;41955;-84
2021/12/31 15:39:44;;;;;;;1.20;1.10;;;;;;;13.35;75.09;99275.69;5102927;28;42694;-84
2021/12/31 15:42:12;;;;;;;1.13;1.03;;;;;;;13.09;75.79;99251.66;5112822;28;41249;-85
2021/12/31 15:44:40;;;;;;;1.57;1.10;;;;;;;13.34;76.42;99305.91;5118121;28;38307;-84
2021/12/31 15:47:09;;;;;;;0.83;0.80;;;;;;;13.08;76.15;99284.53;5113900;28;41699;-85
2021/12/31 15:49:37;;;;;;;1.43;0.70;;;;;;;13.09;76.65;99296.88;5110325;28;42752;-85
2021/12/31 15:52:06;;;;;;;0.80;0.80;;;;;;;12.75;76.97;99254.81;5105072;28;42547;-89
2021/12/31 15:54:33;;;;;;;0.93;0.90;;;;;;;12.96;77.27;99293.31;5078259;28;38884;-89
2021/12/31 15:57:01;;;;;;;1.27;1.07;;;;;;;12.72;77.01;99260.34;5077522;28;40851;-88
2021/12/31 15:59:28;;;;;;;0.80;0.70;;;;;;;12.82;77.68;99282.72;5077454;28;44902;-88
2021/12/31 16:01:56;;;;;;;2.03;0.80;;;;;;;12.94;77.98;99305.84;5077491;28;41238;-87
2021/12/31 16:04:26;;;;;;;2.27;1.00;;;;;;;12.79;77.73;99288.22;5077646;28;38908;-89
2021/12/31 16:06:54;;;;;;;1.30;0.80;;;;;;;12.44;77.22;99240.84;5077992;28;41830;-86
2021/12/31 16:09:22;;;;;;;0.87;0.87;;;;;;;12.52;77.73;99275.75;5084673;28;42999;-88
2021/12/31 16:11:55;;;;;;;0.97;0.97;;;;;;;12.64;78.05;99308.66;5100022;28;42634;-87
2021/12/31 16:14:23;;;;;;;1.20;0.80;;;;;;;12.67;78.08;99328.88;5082990;28;38954;-88
2021/12/31 16:16:51;;;;;;;1.47;0.97;;;;;;;12.37;77.77;99291.78;5060513;28;40337;-89
2021/12/31 16:19:19;;;;;;;1.13;0.90;;;;;;;12.37;78.17;99284.69;5078027;28;42037;-88
2021/12/31 16:21:49;;;;;;;0.90;0.90;;;;;;;12.42;78.05;99311.81;5060788;28;42478;-88
2021/12/31 16:24:16;;;;;;;1.03;0.93;;;;;;;12.43;79.24;99320.63;5077610;28;39643;-88
2021/12/31 16:26:45;;;;;;;1.93;1.20;;;;;;;12.46;78.94;99342.56;5095177;28;42758;-89
2021/12/31 16:29:14;;;;;;;0.83;0.77;;;;;;;12.45;78.94;99354.13;5094603;28;41882;-87
2021/12/31 16:31:42;;;;;;;2.37;1.50;;;;;;;12.03;79.07;99293.91;5080841;28;42377;-86
2021/12/31 16:34:11;;;;;;;1.03;0.93;;;;;;;12.00;79.04;99317.09;5099714;28;39845;-89
2021/12/31 16:36:39;;;;;;;1.83;1.53;;;;;;;12.19;79.19;99349.56;5100617;28;40640;-88
2021/12/31 16:39:14;;;;;;;2.33;1.20;;;;;;;12.16;80.10;99336.47;5099364;28;41203;-86
2021/12/31 16:41:44;;;;;;;1.23;1.03;;;;;;;12.01;80.74;99319.69;5100341;28;41232;-90
2021/12/31 16:44:13;;;;;;;1.87;1.33;;;;;;;11.71;80.60;99287.88;5098353;28;39238;-93
2021/12/31 16:46:41;;;;;;;2.00;1.00;;;;;;;11.96;80.18;99342.16;5098596;28;42277;-88
2021/12/31 16:49:09;;;;;;;2.60;1.10;;;;;;;12.02;80.71;99360.34;5098829;28;43165;-88
2021/12/31 16:51:38;;;;;;;1.87;1.13;;;;;;;12.04;81.38;99358.47;5098449;28;41114;-87
2021/12/31 16:54:05;;;;;;;1.30;1.20;;;;;;;11.92;82.23;99343.28;5097840;28;38935;-87
2021/12/31 16:56:34;;;;;;;1.83;1.13;;;;;;;12.09;82.23;99361.69;5114728;27;41756;-86
2021/12/31 16:59:02;;;;;;;1.23;1.00;;;;;;;12.11;82.49;99357.16;5098522;28;41728;-85
2021/12/31 17:01:29;;;;;;;1.60;1.27;;;;;;;12.09;82.77;99356.41;5099248;28;41117;-88
2021/12/31 17:04:03;;;;;;;1.33;0.83;;;;;;;12.26;82.51;99377.44;5098781;28;38829;-86
2021/12/31 17:06:31;;;;;;;1.00;1.00;;;;;;;12.21;82.46;99366.28;5098047;28;40951;-85
2021/12/31 17:08:58;;;;;;;1.73;1.17;;;;;;;12.25;82.51;99383.69;5098321;28;41463;-86
2021/12/31 17:11:26;;;;;;;1.30;1.20;;;;;;;12.30;82.11;99402.88;5115658;28;42419;-85
2021/12/31 17:13:55;;;;;;;1.10;1.00;;;;;;;12.30;82.29;99394.91;5098068;28;39818;-91
2021/12/31 17:16:23;;;;;;;1.20;1.10;;;;;;;12.21;82.19;99383.06;5098227;28;40833;-84
2021/12/31 17:18:54;;;;;;;1.67;1.20;;;;;;;12.23;82.39;99386.47;5114354;28;43074;-87
2021/12/31 17:21:25;;;;;;;1.30;1.20;;;;;;;11.98;81.93;99324.34;5081902;28;41657;-87
2021/12/31 17:23:53;;;;;;;1.53;1.20;;;;;;;12.31;82.29;99362.09;5098944;28;38960;-87
2021/12/31 17:26:25;;;;;;;0.87;0.87;;;;;;;11.99;82.15;99305.63;5098842;28;40887;-90
2021/12/31 17:29:21;;;;;;;1.43;1.23;;;;;;;12.32;81.96;99353.19;5082969;28;41824;-87
2021/12/31 17:31:56;;;;;;;1.30;1.20;;;;;;;12.49;81.79;99376.88;5082739;28;41338;-89
2021/12/31 17:34:29;;;;;;;0.93;0.93;;;;;;;12.21;81.95;99339.72;5100472;28;39620;-88
2021/12/31 17:36:59;;;;;;;1.43;1.33;;;;;;;12.39;82.25;99370.44;5099167;28;40829;-89
2021/12/31 17:39:29;;;;;;;2.00;1.33;;;;;;;12.09;82.60;99319.22;5094634;28;41844;-87
2021/12/31 17:42:06;;;;;;;1.00;0.90;;;;;;;12.16;82.60;99325.84;5078489;28;41589;-88
2021/12/31 17:44:51;;;;;;;1.50;1.40;;;;;;;12.17;82.56;99327.56;5079192;28;40234;-89
2021/12/31 17:47:25;;;;;;;1.63;1.13;;;;;;;11.87;82.29;99288.66;5079864;28;41268;-89
2021/12/31 17:50:05;;;;;;;1.80;1.60;;;;;;;11.83;82.21;99287.16;5084201;28;41893;-92
2021/12/31 17:52:34;;;;;;;1.90;1.40;;;;;;;12.13;82.90;99331.34;5083383;28;41843;-90
2021/12/31 17:55:08;;;;;;;1.23;1.13;;;;;;;12.11;82.98;99338.56;5099575;28;39019;-85
